RKTY/YEC METAR and TAF weather

Enter ICAO airport designator
Station Type Date Time Source
RKTY METAR 2018/08/06 08:38 UTC NOAA

RKTY 060838Z 07007KT 9999 BKN040 BKN200 28/25 A2968 RMK CIG040


Station Type Date Time Source
RKTY Decoded METAR 2018/08/06 08:38 UTC NOAA

Yechon Ab, Korea, South (RKTY) 36-38N 128-21E 120M
Aug 06, 2018 - 04:38 AM EDT / 2018.08.06 0838 UTC
Wind: from the ENE (070 degrees) at 8 MPH (7 KT):0
Visibility: greater than 7 mile(s):0
Sky conditions: mostly cloudy
Temperature: 82 F (28 C)
Dew Point: 77 F (25 C)
Relative Humidity: 83%
Pressure (altimeter): 29.68 in. Hg (1005 hPa)
ob: RKTY 060838Z 07007KT 9999 BKN040 BKN200 28/25 A2968 RMK CIG040
cycle: 8

Station Type Date Time Source
RKTY TAF 2013/10/14 21:45 UTC NOAA

TAF
AMD TAF
AMD RKTY 142130Z 1421/1524 09006KT 1600 BR FEW005 SCT030
BECMG 1422/1423 09006KT 4800 BR BKN030 BKN200
BECMG 1503/1504 09006KT 8000 -RA BR SCT015 OVC030
BECMG 1513/1514 09006KT 9999 NSW BKN030 TX17/1506Z TN07/1521Z


Example: see airport list